Peterhead, United Kingdom
Current Conditions -  °F | °C
As of 2:50 AM on Sunday 26 Oct 2014 (Local Time) from EGPD Reporting Station
Broken Clouds Broken Clouds  
Wind Chill: 52°   Ceiling: 4300
Heat Index: 52°   Visibility: 6mi
Dew Point: 45°   Wind: 20mph
Humidity: 76%   Direction: 190°S
Pressure: 29.53"   Gusts: NA
Location:  57.51°N, 1.78°W
Report Text: EGPD 260150Z AUTO 19017KT 9999 FEW029/// BKN043/// 11/07 Q1000
Loading
Personal Weather Stations






























Interactive Weather Map
Tropical Storm Tracking
New forecast layout! Learn more

10-Day Weather Forecast

Advertisements
Track Severe Weather on mobile